sensor_id;sensor_type;location;lat;lon;timestamp;P1;durP1;ratioP1;P2;durP2;ratioP2
32172;SDS011;18679;45.190;5.722;2023-04-07T00:01:19;2.53;;;0.93;;
32172;SDS011;18679;45.190;5.722;2023-04-07T00:04:20;2.58;;;1.38;;
32172;SDS011;18679;45.190;5.722;2023-04-07T00:07:21;2.83;;;1.23;;
32172;SDS011;18679;45.190;5.722;2023-04-07T00:10:22;1.90;;;1.10;;
32172;SDS011;18679;45.190;5.722;2023-04-07T00:13:24;1.80;;;1.17;;
32172;SDS011;18679;45.190;5.722;2023-04-07T00:16:25;1.83;;;1.00;;
32172;SDS011;18679;45.190;5.722;2023-04-07T00:19:26;3.42;;;1.50;;
32172;SDS011;18679;45.190;5.722;2023-04-07T00:22:27;3.17;;;1.42;;
32172;SDS011;18679;45.190;5.722;2023-04-07T00:25:28;4.85;;;1.17;;
32172;SDS011;18679;45.190;5.722;2023-04-07T00:28:29;2.63;;;1.48;;
32172;SDS011;18679;45.190;5.722;2023-04-07T00:31:30;3.60;;;1.55;;
32172;SDS011;18679;45.190;5.722;2023-04-07T00:34:31;3.67;;;1.58;;
32172;SDS011;18679;45.190;5.722;2023-04-07T00:37:32;2.50;;;1.15;;
32172;SDS011;18679;45.190;5.722;2023-04-07T00:40:33;3.20;;;1.63;;
32172;SDS011;18679;45.190;5.722;2023-04-07T00:43:34;4.25;;;1.80;;
32172;SDS011;18679;45.190;5.722;2023-04-07T00:46:34;5.68;;;1.63;;
32172;SDS011;18679;45.190;5.722;2023-04-07T00:49:36;3.25;;;1.38;;
32172;SDS011;18679;45.190;5.722;2023-04-07T00:52:37;4.55;;;1.48;;
32172;SDS011;18679;45.190;5.722;2023-04-07T00:55:39;2.33;;;1.42;;
32172;SDS011;18679;45.190;5.722;2023-04-07T00:58:40;2.70;;;1.25;;
32172;SDS011;18679;45.190;5.722;2023-04-07T01:01:45;2.75;;;1.67;;
32172;SDS011;18679;45.190;5.722;2023-04-07T01:04:59;3.17;;;1.35;;
32172;SDS011;18679;45.190;5.722;2023-04-07T01:08:24;2.20;;;1.40;;
32172;SDS011;18679;45.190;5.722;2023-04-07T01:11:31;5.20;;;1.77;;
32172;SDS011;18679;45.190;5.722;2023-04-07T01:14:45;2.22;;;1.30;;
32172;SDS011;18679;45.190;5.722;2023-04-07T01:18:08;7.25;;;1.40;;
32172;SDS011;18679;45.190;5.722;2023-04-07T01:21:16;4.38;;;1.42;;
32172;SDS011;18679;45.190;5.722;2023-04-07T01:24:33;2.15;;;1.20;;
32172;SDS011;18679;45.190;5.722;2023-04-07T01:31:40;1.60;;;1.10;;
32172;SDS011;18679;45.190;5.722;2023-04-07T01:34:42;1.95;;;1.30;;
32172;SDS011;18679;45.190;5.722;2023-04-07T01:37:45;3.47;;;1.42;;
32172;SDS011;18679;45.190;5.722;2023-04-07T01:40:48;2.60;;;1.20;;
32172;SDS011;18679;45.190;5.722;2023-04-07T01:43:51;2.30;;;1.27;;
32172;SDS011;18679;45.190;5.722;2023-04-07T01:46:54;3.70;;;1.27;;
32172;SDS011;18679;45.190;5.722;2023-04-07T01:50:00;2.10;;;0.98;;
32172;SDS011;18679;45.190;5.722;2023-04-07T01:53:04;6.07;;;1.40;;
32172;SDS011;18679;45.190;5.722;2023-04-07T01:56:05;8.48;;;1.67;;
32172;SDS011;18679;45.190;5.722;2023-04-07T01:59:08;5.68;;;1.70;;
32172;SDS011;18679;45.190;5.722;2023-04-07T02:02:09;2.60;;;1.40;;
32172;SDS011;18679;45.190;5.722;2023-04-07T02:05:11;2.45;;;1.17;;
32172;SDS011;18679;45.190;5.722;2023-04-07T02:08:15;3.85;;;1.73;;
32172;SDS011;18679;45.190;5.722;2023-04-07T02:11:19;2.42;;;1.15;;
32172;SDS011;18679;45.190;5.722;2023-04-07T02:14:23;1.52;;;1.10;;
32172;SDS011;18679;45.190;5.722;2023-04-07T02:17:33;3.28;;;1.30;;
32172;SDS011;18679;45.190;5.722;2023-04-07T02:20:37;1.13;;;0.90;;
32172;SDS011;18679;45.190;5.722;2023-04-07T02:23:39;3.58;;;1.13;;
32172;SDS011;18679;45.190;5.722;2023-04-07T02:26:41;1.95;;;1.20;;
32172;SDS011;18679;45.190;5.722;2023-04-07T02:29:42;3.03;;;0.90;;
32172;SDS011;18679;45.190;5.722;2023-04-07T02:32:43;4.22;;;1.55;;
32172;SDS011;18679;45.190;5.722;2023-04-07T02:35:44;3.70;;;1.17;;
32172;SDS011;18679;45.190;5.722;2023-04-07T02:38:45;1.85;;;1.13;;
32172;SDS011;18679;45.190;5.722;2023-04-07T02:41:46;1.92;;;1.08;;
32172;SDS011;18679;45.190;5.722;2023-04-07T02:44:47;1.35;;;0.80;;
32172;SDS011;18679;45.190;5.722;2023-04-07T02:47:48;2.63;;;1.00;;
32172;SDS011;18679;45.190;5.722;2023-04-07T02:50:51;1.83;;;1.02;;
32172;SDS011;18679;45.190;5.722;2023-04-07T02:53:52;2.88;;;1.20;;
32172;SDS011;18679;45.190;5.722;2023-04-07T02:56:52;4.32;;;1.05;;
32172;SDS011;18679;45.190;5.722;2023-04-07T02:59:53;2.42;;;1.17;;
32172;SDS011;18679;45.190;5.722;2023-04-07T03:02:59;5.75;;;1.48;;
32172;SDS011;18679;45.190;5.722;2023-04-07T03:06:04;2.70;;;1.20;;
32172;SDS011;18679;45.190;5.722;2023-04-07T03:09:07;1.92;;;1.10;;
32172;SDS011;18679;45.190;5.722;2023-04-07T03:12:08;2.17;;;1.13;;
32172;SDS011;18679;45.190;5.722;2023-04-07T03:15:10;3.67;;;1.58;;
32172;SDS011;18679;45.190;5.722;2023-04-07T03:18:12;2.47;;;1.30;;
32172;SDS011;18679;45.190;5.722;2023-04-07T03:21:16;4.30;;;1.50;;
32172;SDS011;18679;45.190;5.722;2023-04-07T03:24:18;4.22;;;1.10;;
32172;SDS011;18679;45.190;5.722;2023-04-07T03:27:20;3.33;;;1.00;;
32172;SDS011;18679;45.190;5.722;2023-04-07T03:30:22;2.55;;;1.23;;
32172;SDS011;18679;45.190;5.722;2023-04-07T03:33:24;2.92;;;1.25;;
32172;SDS011;18679;45.190;5.722;2023-04-07T03:36:27;1.30;;;0.93;;
32172;SDS011;18679;45.190;5.722;2023-04-07T03:39:31;2.28;;;0.93;;
32172;SDS011;18679;45.190;5.722;2023-04-07T03:42:34;1.15;;;0.77;;
32172;SDS011;18679;45.190;5.722;2023-04-07T03:45:38;1.23;;;0.80;;
32172;SDS011;18679;45.190;5.722;2023-04-07T03:48:40;4.03;;;1.38;;
32172;SDS011;18679;45.190;5.722;2023-04-07T03:51:43;1.77;;;0.90;;
32172;SDS011;18679;45.190;5.722;2023-04-07T03:54:48;2.53;;;0.98;;
32172;SDS011;18679;45.190;5.722;2023-04-07T03:57:50;3.08;;;0.93;;
32172;SDS011;18679;45.190;5.722;2023-04-07T04:00:51;1.88;;;0.90;;
32172;SDS011;18679;45.190;5.722;2023-04-07T04:03:52;1.48;;;1.13;;
32172;SDS011;18679;45.190;5.722;2023-04-07T04:06:58;1.50;;;0.75;;
32172;SDS011;18679;45.190;5.722;2023-04-07T04:10:12;1.85;;;0.95;;
32172;SDS011;18679;45.190;5.722;2023-04-07T04:13:16;1.83;;;1.00;;
32172;SDS011;18679;45.190;5.722;2023-04-07T04:16:17;2.25;;;1.10;;
32172;SDS011;18679;45.190;5.722;2023-04-07T04:19:20;2.55;;;0.88;;
32172;SDS011;18679;45.190;5.722;2023-04-07T04:22:23;2.70;;;1.20;;
32172;SDS011;18679;45.190;5.722;2023-04-07T04:25:30;0.68;;;0.50;;
32172;SDS011;18679;45.190;5.722;2023-04-07T04:28:32;2.08;;;0.93;;
32172;SDS011;18679;45.190;5.722;2023-04-07T04:31:34;2.17;;;1.15;;
32172;SDS011;18679;45.190;5.722;2023-04-07T04:34:35;3.90;;;1.27;;
32172;SDS011;18679;45.190;5.722;2023-04-07T04:37:37;2.33;;;1.23;;
32172;SDS011;18679;45.190;5.722;2023-04-07T04:40:43;5.72;;;1.45;;
32172;SDS011;18679;45.190;5.722;2023-04-07T04:43:45;1.85;;;1.20;;
32172;SDS011;18679;45.190;5.722;2023-04-07T04:46:50;9.82;;;1.27;;
32172;SDS011;18679;45.190;5.722;2023-04-07T04:49:52;2.22;;;1.42;;
32172;SDS011;18679;45.190;5.722;2023-04-07T04:52:53;2.10;;;1.25;;
32172;SDS011;18679;45.190;5.722;2023-04-07T04:55:57;3.28;;;1.25;;
32172;SDS011;18679;45.190;5.722;2023-04-07T04:59:08;1.08;;;0.80;;
32172;SDS011;18679;45.190;5.722;2023-04-07T05:02:20;3.75;;;1.08;;
32172;SDS011;18679;45.190;5.722;2023-04-07T05:05:22;1.08;;;0.98;;
32172;SDS011;18679;45.190;5.722;2023-04-07T05:08:25;2.22;;;0.85;;
32172;SDS011;18679;45.190;5.722;2023-04-07T05:11:27;2.15;;;1.15;;
32172;SDS011;18679;45.190;5.722;2023-04-07T05:14:29;2.78;;;0.95;;
32172;SDS011;18679;45.190;5.722;2023-04-07T05:17:37;1.98;;;1.35;;
32172;SDS011;18679;45.190;5.722;2023-04-07T05:20:38;2.50;;;1.05;;
32172;SDS011;18679;45.190;5.722;2023-04-07T05:23:41;7.00;;;1.02;;
32172;SDS011;18679;45.190;5.722;2023-04-07T05:26:44;2.58;;;1.15;;
32172;SDS011;18679;45.190;5.722;2023-04-07T05:29:44;12.50;;;1.20;;
32172;SDS011;18679;45.190;5.722;2023-04-07T05:32:54;2.03;;;0.95;;
32172;SDS011;18679;45.190;5.722;2023-04-07T05:36:14;1.70;;;0.95;;
32172;SDS011;18679;45.190;5.722;2023-04-07T05:39:15;1.15;;;0.80;;
32172;SDS011;18679;45.190;5.722;2023-04-07T05:42:18;1.73;;;1.17;;
32172;SDS011;18679;45.190;5.722;2023-04-07T05:45:23;3.13;;;1.20;;
32172;SDS011;18679;45.190;5.722;2023-04-07T05:48:24;2.65;;;1.25;;
32172;SDS011;18679;45.190;5.722;2023-04-07T05:51:27;4.78;;;1.23;;
32172;SDS011;18679;45.190;5.722;2023-04-07T05:54:29;2.22;;;0.90;;
32172;SDS011;18679;45.190;5.722;2023-04-07T05:57:33;2.38;;;1.02;;
32172;SDS011;18679;45.190;5.722;2023-04-07T06:00:36;5.57;;;1.13;;
32172;SDS011;18679;45.190;5.722;2023-04-07T06:03:44;3.42;;;0.98;;
32172;SDS011;18679;45.190;5.722;2023-04-07T06:06:49;4.75;;;1.45;;
32172;SDS011;18679;45.190;5.722;2023-04-07T06:09:52;2.03;;;0.85;;
32172;SDS011;18679;45.190;5.722;2023-04-07T06:12:53;2.80;;;1.10;;
32172;SDS011;18679;45.190;5.722;2023-04-07T06:15:54;10.43;;;1.25;;
32172;SDS011;18679;45.190;5.722;2023-04-07T06:18:58;2.28;;;0.70;;
32172;SDS011;18679;45.190;5.722;2023-04-07T06:21:58;1.52;;;1.00;;
32172;SDS011;18679;45.190;5.722;2023-04-07T06:24:59;2.67;;;0.60;;
32172;SDS011;18679;45.190;5.722;2023-04-07T06:28:00;7.72;;;1.20;;
32172;SDS011;18679;45.190;5.722;2023-04-07T06:31:01;8.70;;;1.27;;
32172;SDS011;18679;45.190;5.722;2023-04-07T06:34:03;4.25;;;0.98;;
32172;SDS011;18679;45.190;5.722;2023-04-07T06:37:04;2.38;;;1.02;;
32172;SDS011;18679;45.190;5.722;2023-04-07T06:40:06;4.75;;;0.82;;
32172;SDS011;18679;45.190;5.722;2023-04-07T06:43:08;2.08;;;1.10;;
32172;SDS011;18679;45.190;5.722;2023-04-07T06:46:16;3.45;;;0.85;;
32172;SDS011;18679;45.190;5.722;2023-04-07T06:49:18;4.20;;;1.00;;
32172;SDS011;18679;45.190;5.722;2023-04-07T06:52:19;1.98;;;1.20;;
32172;SDS011;18679;45.190;5.722;2023-04-07T06:55:19;8.43;;;1.88;;
32172;SDS011;18679;45.190;5.722;2023-04-07T06:58:20;4.32;;;1.40;;
32172;SDS011;18679;45.190;5.722;2023-04-07T07:01:21;2.15;;;1.08;;
32172;SDS011;18679;45.190;5.722;2023-04-07T07:04:22;1.58;;;1.15;;
32172;SDS011;18679;45.190;5.722;2023-04-07T07:07:23;5.25;;;1.40;;
32172;SDS011;18679;45.190;5.722;2023-04-07T07:10:25;5.68;;;1.80;;
32172;SDS011;18679;45.190;5.722;2023-04-07T07:13:25;6.15;;;1.88;;
32172;SDS011;18679;45.190;5.722;2023-04-07T07:16:27;2.97;;;1.67;;
32172;SDS011;18679;45.190;5.722;2023-04-07T07:19:28;7.30;;;1.55;;
32172;SDS011;18679;45.190;5.722;2023-04-07T07:22:29;3.78;;;1.70;;
32172;SDS011;18679;45.190;5.722;2023-04-07T07:25:30;8.57;;;1.92;;
32172;SDS011;18679;45.190;5.722;2023-04-07T07:28:30;6.22;;;1.85;;
32172;SDS011;18679;45.190;5.722;2023-04-07T07:31:31;18.38;;;2.30;;
32172;SDS011;18679;45.190;5.722;2023-04-07T07:34:32;10.50;;;1.90;;
32172;SDS011;18679;45.190;5.722;2023-04-07T07:37:33;17.05;;;2.42;;
32172;SDS011;18679;45.190;5.722;2023-04-07T07:40:34;14.48;;;2.00;;
32172;SDS011;18679;45.190;5.722;2023-04-07T07:43:35;5.10;;;1.40;;
32172;SDS011;18679;45.190;5.722;2023-04-07T07:46:36;5.22;;;1.35;;
32172;SDS011;18679;45.190;5.722;2023-04-07T07:49:37;9.73;;;2.30;;
32172;SDS011;18679;45.190;5.722;2023-04-07T07:52:38;4.13;;;2.03;;
32172;SDS011;18679;45.190;5.722;2023-04-07T07:55:39;15.35;;;2.20;;
32172;SDS011;18679;45.190;5.722;2023-04-07T07:58:40;4.38;;;1.88;;
32172;SDS011;18679;45.190;5.722;2023-04-07T08:01:41;6.88;;;2.17;;
32172;SDS011;18679;45.190;5.722;2023-04-07T08:04:42;7.20;;;2.55;;
32172;SDS011;18679;45.190;5.722;2023-04-07T08:07:43;42.78;;;3.67;;
32172;SDS011;18679;45.190;5.722;2023-04-07T08:10:44;17.55;;;3.15;;
32172;SDS011;18679;45.190;5.722;2023-04-07T08:13:45;19.70;;;3.35;;
32172;SDS011;18679;45.190;5.722;2023-04-07T08:16:46;8.63;;;2.22;;
32172;SDS011;18679;45.190;5.722;2023-04-07T08:19:47;4.60;;;2.17;;
32172;SDS011;18679;45.190;5.722;2023-04-07T08:22:47;3.60;;;1.88;;
32172;SDS011;18679;45.190;5.722;2023-04-07T08:25:48;6.30;;;2.17;;
32172;SDS011;18679;45.190;5.722;2023-04-07T08:28:50;28.23;;;3.30;;
32172;SDS011;18679;45.190;5.722;2023-04-07T08:31:52;9.13;;;1.98;;
32172;SDS011;18679;45.190;5.722;2023-04-07T08:34:54;5.30;;;2.22;;
32172;SDS011;18679;45.190;5.722;2023-04-07T08:37:55;5.65;;;1.90;;
32172;SDS011;18679;45.190;5.722;2023-04-07T08:41:03;3.67;;;1.80;;
32172;SDS011;18679;45.190;5.722;2023-04-07T08:44:09;3.90;;;2.13;;
32172;SDS011;18679;45.190;5.722;2023-04-07T08:47:10;7.97;;;2.60;;
32172;SDS011;18679;45.190;5.722;2023-04-07T08:50:12;4.28;;;2.10;;
32172;SDS011;18679;45.190;5.722;2023-04-07T08:53:16;9.68;;;2.50;;
32172;SDS011;18679;45.190;5.722;2023-04-07T08:56:22;8.05;;;2.75;;
32172;SDS011;18679;45.190;5.722;2023-04-07T08:59:25;14.68;;;2.92;;
32172;SDS011;18679;45.190;5.722;2023-04-07T09:02:28;10.88;;;3.97;;
32172;SDS011;18679;45.190;5.722;2023-04-07T09:05:30;8.73;;;3.42;;
32172;SDS011;18679;45.190;5.722;2023-04-07T09:08:32;10.88;;;4.22;;
32172;SDS011;18679;45.190;5.722;2023-04-07T09:11:34;4.38;;;2.58;;
32172;SDS011;18679;45.190;5.722;2023-04-07T09:14:36;10.07;;;3.25;;
32172;SDS011;18679;45.190;5.722;2023-04-07T09:17:37;15.88;;;4.75;;
32172;SDS011;18679;45.190;5.722;2023-04-07T09:23:58;5.80;;;2.38;;
32172;SDS011;18679;45.190;5.722;2023-04-07T09:27:15;9.52;;;3.10;;
32172;SDS011;18679;45.190;5.722;2023-04-07T09:30:18;6.10;;;2.80;;
32172;SDS011;18679;45.190;5.722;2023-04-07T09:33:28;4.40;;;2.10;;
32172;SDS011;18679;45.190;5.722;2023-04-07T09:36:31;7.25;;;3.05;;
32172;SDS011;18679;45.190;5.722;2023-04-07T09:39:51;11.70;;;2.25;;
32172;SDS011;18679;45.190;5.722;2023-04-07T09:42:53;5.15;;;2.20;;
32172;SDS011;18679;45.190;5.722;2023-04-07T09:46:05;9.82;;;3.20;;
32172;SDS011;18679;45.190;5.722;2023-04-07T09:49:10;7.15;;;3.17;;
32172;SDS011;18679;45.190;5.722;2023-04-07T09:52:11;10.73;;;2.47;;
32172;SDS011;18679;45.190;5.722;2023-04-07T09:55:12;8.98;;;2.78;;
32172;SDS011;18679;45.190;5.722;2023-04-07T09:58:15;10.05;;;2.75;;
32172;SDS011;18679;45.190;5.722;2023-04-07T10:01:16;24.13;;;6.38;;
32172;SDS011;18679;45.190;5.722;2023-04-07T10:04:17;26.45;;;5.75;;
32172;SDS011;18679;45.190;5.722;2023-04-07T10:07:18;18.52;;;3.25;;
32172;SDS011;18679;45.190;5.722;2023-04-07T10:10:19;8.35;;;2.72;;
32172;SDS011;18679;45.190;5.722;2023-04-07T10:13:20;12.05;;;3.65;;
32172;SDS011;18679;45.190;5.722;2023-04-07T10:16:21;14.23;;;4.43;;
32172;SDS011;18679;45.190;5.722;2023-04-07T10:19:23;21.90;;;3.40;;
32172;SDS011;18679;45.190;5.722;2023-04-07T10:22:26;9.23;;;2.78;;
32172;SDS011;18679;45.190;5.722;2023-04-07T10:25:28;10.93;;;2.63;;
32172;SDS011;18679;45.190;5.722;2023-04-07T10:28:29;5.55;;;2.22;;
32172;SDS011;18679;45.190;5.722;2023-04-07T10:31:33;8.90;;;3.60;;
32172;SDS011;18679;45.190;5.722;2023-04-07T10:34:54;7.53;;;3.60;;
32172;SDS011;18679;45.190;5.722;2023-04-07T10:57:19;13.13;;;3.50;;
32172;SDS011;18679;45.190;5.722;2023-04-07T11:00:22;4.47;;;2.60;;
32172;SDS011;18679;45.190;5.722;2023-04-07T11:03:24;10.48;;;4.20;;
32172;SDS011;18679;45.190;5.722;2023-04-07T11:06:26;15.15;;;5.93;;
32172;SDS011;18679;45.190;5.722;2023-04-07T11:09:27;10.05;;;4.07;;
32172;SDS011;18679;45.190;5.722;2023-04-07T11:12:28;13.77;;;4.82;;
32172;SDS011;18679;45.190;5.722;2023-04-07T11:15:30;10.75;;;2.85;;
32172;SDS011;18679;45.190;5.722;2023-04-07T11:18:34;14.43;;;4.47;;
32172;SDS011;18679;45.190;5.722;2023-04-07T11:21:36;4.38;;;2.25;;
32172;SDS011;18679;45.190;5.722;2023-04-07T11:24:37;3.67;;;2.22;;
32172;SDS011;18679;45.190;5.722;2023-04-07T11:27:38;5.97;;;3.00;;
32172;SDS011;18679;45.190;5.722;2023-04-07T11:30:48;7.97;;;4.20;;
32172;SDS011;18679;45.190;5.722;2023-04-07T11:33:52;3.58;;;2.10;;
32172;SDS011;18679;45.190;5.722;2023-04-07T11:36:54;4.30;;;2.75;;
32172;SDS011;18679;45.190;5.722;2023-04-07T11:39:59;4.75;;;2.20;;
32172;SDS011;18679;45.190;5.722;2023-04-07T11:43:00;2.30;;;1.88;;
32172;SDS011;18679;45.190;5.722;2023-04-07T11:46:04;4.15;;;2.13;;
32172;SDS011;18679;45.190;5.722;2023-04-07T11:49:13;3.58;;;2.05;;
32172;SDS011;18679;45.190;5.722;2023-04-07T11:52:15;7.28;;;3.85;;
32172;SDS011;18679;45.190;5.722;2023-04-07T11:55:19;2.65;;;1.83;;
32172;SDS011;18679;45.190;5.722;2023-04-07T11:58:21;3.03;;;2.10;;
32172;SDS011;18679;45.190;5.722;2023-04-07T12:01:22;3.88;;;1.98;;
32172;SDS011;18679;45.190;5.722;2023-04-07T12:04:54;2.40;;;1.80;;
32172;SDS011;18679;45.190;5.722;2023-04-07T12:07:56;3.10;;;2.00;;
32172;SDS011;18679;45.190;5.722;2023-04-07T12:11:04;4.20;;;2.40;;
32172;SDS011;18679;45.190;5.722;2023-04-07T12:14:05;2.47;;;1.45;;
32172;SDS011;18679;45.190;5.722;2023-04-07T12:17:18;4.70;;;1.95;;
32172;SDS011;18679;45.190;5.722;2023-04-07T12:20:23;3.03;;;1.55;;
32172;SDS011;18679;45.190;5.722;2023-04-07T12:23:26;5.85;;;1.80;;
32172;SDS011;18679;45.190;5.722;2023-04-07T12:26:27;3.58;;;2.03;;
32172;SDS011;18679;45.190;5.722;2023-04-07T12:29:28;5.40;;;2.30;;
32172;SDS011;18679;45.190;5.722;2023-04-07T12:32:29;3.92;;;2.25;;
32172;SDS011;18679;45.190;5.722;2023-04-07T12:35:31;5.03;;;1.98;;
32172;SDS011;18679;45.190;5.722;2023-04-07T12:38:32;2.35;;;1.38;;
32172;SDS011;18679;45.190;5.722;2023-04-07T12:41:33;8.63;;;1.83;;
32172;SDS011;18679;45.190;5.722;2023-04-07T12:44:35;5.65;;;2.28;;
32172;SDS011;18679;45.190;5.722;2023-04-07T12:47:36;4.82;;;1.95;;
32172;SDS011;18679;45.190;5.722;2023-04-07T12:50:37;6.38;;;1.77;;
32172;SDS011;18679;45.190;5.722;2023-04-07T12:53:38;13.82;;;3.05;;
32172;SDS011;18679;45.190;5.722;2023-04-07T12:56:39;27.92;;;3.17;;
32172;SDS011;18679;45.190;5.722;2023-04-07T12:59:41;5.07;;;2.15;;
32172;SDS011;18679;45.190;5.722;2023-04-07T13:02:42;20.17;;;2.10;;
32172;SDS011;18679;45.190;5.722;2023-04-07T13:05:43;4.07;;;1.30;;
32172;SDS011;18679;45.190;5.722;2023-04-07T13:08:43;5.43;;;1.25;;
32172;SDS011;18679;45.190;5.722;2023-04-07T13:11:44;2.35;;;1.40;;
32172;SDS011;18679;45.190;5.722;2023-04-07T13:14:45;5.45;;;1.42;;
32172;SDS011;18679;45.190;5.722;2023-04-07T13:21:11;2.97;;;1.00;;
32172;SDS011;18679;45.190;5.722;2023-04-07T13:24:12;3.78;;;1.25;;
32172;SDS011;18679;45.190;5.722;2023-04-07T13:27:13;1.33;;;0.90;;
32172;SDS011;18679;45.190;5.722;2023-04-07T13:30:14;2.13;;;1.40;;
32172;SDS011;18679;45.190;5.722;2023-04-07T13:33:15;5.68;;;0.90;;
32172;SDS011;18679;45.190;5.722;2023-04-07T13:36:16;4.45;;;1.00;;
32172;SDS011;18679;45.190;5.722;2023-04-07T13:39:16;1.15;;;0.70;;
32172;SDS011;18679;45.190;5.722;2023-04-07T13:42:17;1.23;;;0.60;;
32172;SDS011;18679;45.190;5.722;2023-04-07T13:45:20;2.28;;;0.50;;
32172;SDS011;18679;45.190;5.722;2023-04-07T13:48:20;1.80;;;0.60;;
32172;SDS011;18679;45.190;5.722;2023-04-07T13:51:21;1.33;;;0.60;;
32172;SDS011;18679;45.190;5.722;2023-04-07T13:54:22;2.17;;;0.68;;
32172;SDS011;18679;45.190;5.722;2023-04-07T13:57:23;1.70;;;0.95;;
32172;SDS011;18679;45.190;5.722;2023-04-07T14:00:24;3.55;;;0.93;;
32172;SDS011;18679;45.190;5.722;2023-04-07T14:03:25;0.93;;;0.60;;
32172;SDS011;18679;45.190;5.722;2023-04-07T14:06:27;3.45;;;1.00;;
32172;SDS011;18679;45.190;5.722;2023-04-07T14:09:29;0.70;;;0.57;;
32172;SDS011;18679;45.190;5.722;2023-04-07T14:12:30;3.60;;;0.82;;
32172;SDS011;18679;45.190;5.722;2023-04-07T14:15:31;1.52;;;1.00;;
32172;SDS011;18679;45.190;5.722;2023-04-07T14:18:33;1.30;;;0.73;;
32172;SDS011;18679;45.190;5.722;2023-04-07T14:21:33;1.70;;;0.80;;
32172;SDS011;18679;45.190;5.722;2023-04-07T14:24:34;2.15;;;0.93;;
32172;SDS011;18679;45.190;5.722;2023-04-07T14:27:35;2.13;;;1.00;;
32172;SDS011;18679;45.190;5.722;2023-04-07T14:30:36;3.88;;;1.05;;
32172;SDS011;18679;45.190;5.722;2023-04-07T14:33:38;3.60;;;1.13;;
32172;SDS011;18679;45.190;5.722;2023-04-07T14:36:38;2.45;;;1.38;;
32172;SDS011;18679;45.190;5.722;2023-04-07T14:39:40;3.58;;;1.00;;
32172;SDS011;18679;45.190;5.722;2023-04-07T14:42:41;4.05;;;1.00;;
32172;SDS011;18679;45.190;5.722;2023-04-07T14:45:42;1.50;;;0.80;;
32172;SDS011;18679;45.190;5.722;2023-04-07T14:48:44;2.28;;;0.60;;
32172;SDS011;18679;45.190;5.722;2023-04-07T14:51:45;5.28;;;1.02;;
32172;SDS011;18679;45.190;5.722;2023-04-07T14:54:46;2.63;;;0.98;;
32172;SDS011;18679;45.190;5.722;2023-04-07T14:57:47;1.17;;;0.77;;
32172;SDS011;18679;45.190;5.722;2023-04-07T15:00:48;1.95;;;0.90;;
32172;SDS011;18679;45.190;5.722;2023-04-07T15:03:52;4.20;;;1.70;;
32172;SDS011;18679;45.190;5.722;2023-04-07T15:06:53;2.63;;;0.70;;
32172;SDS011;18679;45.190;5.722;2023-04-07T15:09:54;4.60;;;0.95;;
32172;SDS011;18679;45.190;5.722;2023-04-07T15:12:56;3.35;;;0.73;;
32172;SDS011;18679;45.190;5.722;2023-04-07T15:16:04;0.85;;;0.60;;
32172;SDS011;18679;45.190;5.722;2023-04-07T15:19:06;2.13;;;0.80;;
32172;SDS011;18679;45.190;5.722;2023-04-07T15:22:07;2.38;;;1.10;;
32172;SDS011;18679;45.190;5.722;2023-04-07T15:25:08;1.63;;;1.00;;
32172;SDS011;18679;45.190;5.722;2023-04-07T15:28:09;1.00;;;0.70;;
32172;SDS011;18679;45.190;5.722;2023-04-07T15:31:10;1.02;;;0.85;;
32172;SDS011;18679;45.190;5.722;2023-04-07T15:34:10;3.05;;;1.35;;
32172;SDS011;18679;45.190;5.722;2023-04-07T15:37:12;1.52;;;0.77;;
32172;SDS011;18679;45.190;5.722;2023-04-07T15:40:19;0.88;;;0.50;;
32172;SDS011;18679;45.190;5.722;2023-04-07T15:43:20;0.63;;;0.40;;
32172;SDS011;18679;45.190;5.722;2023-04-07T15:46:21;4.38;;;0.70;;
32172;SDS011;18679;45.190;5.722;2023-04-07T15:49:22;2.03;;;1.10;;
32172;SDS011;18679;45.190;5.722;2023-04-07T15:52:23;4.53;;;1.83;;
32172;SDS011;18679;45.190;5.722;2023-04-07T15:55:24;2.20;;;0.90;;
32172;SDS011;18679;45.190;5.722;2023-04-07T15:58:24;1.67;;;0.77;;
32172;SDS011;18679;45.190;5.722;2023-04-07T16:01:25;1.35;;;0.70;;
32172;SDS011;18679;45.190;5.722;2023-04-07T16:04:26;1.83;;;1.02;;
32172;SDS011;18679;45.190;5.722;2023-04-07T16:07:27;1.85;;;0.90;;
32172;SDS011;18679;45.190;5.722;2023-04-07T16:10:28;3.05;;;1.65;;
32172;SDS011;18679;45.190;5.722;2023-04-07T16:13:29;2.92;;;1.60;;
32172;SDS011;18679;45.190;5.722;2023-04-07T16:16:30;2.85;;;1.23;;
32172;SDS011;18679;45.190;5.722;2023-04-07T16:19:35;2.30;;;0.98;;
32172;SDS011;18679;45.190;5.722;2023-04-07T16:22:35;3.75;;;1.85;;
32172;SDS011;18679;45.190;5.722;2023-04-07T16:25:36;2.47;;;1.10;;
32172;SDS011;18679;45.190;5.722;2023-04-07T16:28:37;3.42;;;1.00;;
32172;SDS011;18679;45.190;5.722;2023-04-07T16:31:41;0.93;;;0.73;;
32172;SDS011;18679;45.190;5.722;2023-04-07T16:34:43;4.55;;;0.70;;
32172;SDS011;18679;45.190;5.722;2023-04-07T16:37:44;2.15;;;0.85;;
32172;SDS011;18679;45.190;5.722;2023-04-07T16:40:45;1.70;;;0.80;;
32172;SDS011;18679;45.190;5.722;2023-04-07T16:43:47;2.92;;;0.80;;
32172;SDS011;18679;45.190;5.722;2023-04-07T16:46:47;1.58;;;0.57;;
32172;SDS011;18679;45.190;5.722;2023-04-07T16:49:48;1.13;;;0.60;;
32172;SDS011;18679;45.190;5.722;2023-04-07T16:52:49;1.27;;;0.57;;
32172;SDS011;18679;45.190;5.722;2023-04-07T16:55:50;0.70;;;0.70;;
32172;SDS011;18679;45.190;5.722;2023-04-07T16:58:51;3.40;;;0.88;;
32172;SDS011;18679;45.190;5.722;2023-04-07T17:01:52;1.55;;;0.80;;
32172;SDS011;18679;45.190;5.722;2023-04-07T17:04:52;0.77;;;0.65;;
32172;SDS011;18679;45.190;5.722;2023-04-07T17:07:53;2.25;;;0.90;;
32172;SDS011;18679;45.190;5.722;2023-04-07T17:10:54;0.63;;;0.50;;
32172;SDS011;18679;45.190;5.722;2023-04-07T17:13:55;1.42;;;0.60;;
32172;SDS011;18679;45.190;5.722;2023-04-07T17:16:56;2.40;;;0.98;;
32172;SDS011;18679;45.190;5.722;2023-04-07T17:19:57;1.05;;;0.50;;
32172;SDS011;18679;45.190;5.722;2023-04-07T17:22:59;2.42;;;0.52;;
32172;SDS011;18679;45.190;5.722;2023-04-07T17:25:59;1.33;;;0.50;;
32172;SDS011;18679;45.190;5.722;2023-04-07T17:29:00;3.33;;;0.75;;
32172;SDS011;18679;45.190;5.722;2023-04-07T17:32:01;5.05;;;1.00;;
32172;SDS011;18679;45.190;5.722;2023-04-07T17:35:02;0.80;;;0.70;;
32172;SDS011;18679;45.190;5.722;2023-04-07T17:38:03;2.08;;;0.73;;
32172;SDS011;18679;45.190;5.722;2023-04-07T17:41:04;2.60;;;1.20;;
32172;SDS011;18679;45.190;5.722;2023-04-07T17:44:05;2.45;;;0.80;;
32172;SDS011;18679;45.190;5.722;2023-04-07T17:47:06;3.05;;;1.10;;
32172;SDS011;18679;45.190;5.722;2023-04-07T17:50:07;3.63;;;1.55;;
32172;SDS011;18679;45.190;5.722;2023-04-07T17:53:09;6.75;;;2.50;;
32172;SDS011;18679;45.190;5.722;2023-04-07T17:56:09;3.33;;;1.38;;
32172;SDS011;18679;45.190;5.722;2023-04-07T17:59:11;1.20;;;0.50;;
32172;SDS011;18679;45.190;5.722;2023-04-07T18:02:12;2.78;;;1.45;;
32172;SDS011;18679;45.190;5.722;2023-04-07T18:05:13;3.72;;;2.03;;
32172;SDS011;18679;45.190;5.722;2023-04-07T18:08:14;3.25;;;1.80;;
32172;SDS011;18679;45.190;5.722;2023-04-07T18:11:15;6.55;;;2.90;;
32172;SDS011;18679;45.190;5.722;2023-04-07T18:14:17;4.65;;;1.60;;
32172;SDS011;18679;45.190;5.722;2023-04-07T18:17:18;3.75;;;1.95;;
32172;SDS011;18679;45.190;5.722;2023-04-07T18:20:19;4.85;;;2.10;;
32172;SDS011;18679;45.190;5.722;2023-04-07T18:23:20;3.65;;;1.80;;
32172;SDS011;18679;45.190;5.722;2023-04-07T18:26:21;6.32;;;1.67;;
32172;SDS011;18679;45.190;5.722;2023-04-07T18:29:22;10.30;;;2.13;;
32172;SDS011;18679;45.190;5.722;2023-04-07T18:32:23;3.88;;;1.67;;
32172;SDS011;18679;45.190;5.722;2023-04-07T18:35:24;3.35;;;1.40;;
32172;SDS011;18679;45.190;5.722;2023-04-07T18:38:25;3.70;;;2.00;;
32172;SDS011;18679;45.190;5.722;2023-04-07T18:41:26;2.67;;;1.33;;
32172;SDS011;18679;45.190;5.722;2023-04-07T18:44:27;2.85;;;1.60;;
32172;SDS011;18679;45.190;5.722;2023-04-07T18:47:28;1.95;;;1.38;;